sensor_id;sensor_type;location;lat;lon;timestamp;temperature;humidity
67974;DHT22;54756;51.140;6.952;2023-07-16T00:01:56;19.00;99.90
67974;DHT22;54756;51.140;6.952;2023-07-16T00:03:56;19.00;99.90
67974;DHT22;54756;51.140;6.952;2023-07-16T00:05:57;19.00;99.90
67974;DHT22;54756;51.140;6.952;2023-07-16T00:07:57;19.00;99.90
67974;DHT22;54756;51.140;6.952;2023-07-16T00:09:58;18.90;99.90
67974;DHT22;54756;51.140;6.952;2023-07-16T00:11:58;18.90;99.90
67974;DHT22;54756;51.140;6.952;2023-07-16T00:13:59;18.80;99.90
67974;DHT22;54756;51.140;6.952;2023-07-16T00:16:02;18.80;99.90
67974;DHT22;54756;51.140;6.952;2023-07-16T00:18:02;18.80;99.90
67974;DHT22;54756;51.140;6.952;2023-07-16T00:20:03;18.80;99.90
67974;DHT22;54756;51.140;6.952;2023-07-16T00:22:06;18.80;99.90
67974;DHT22;54756;51.140;6.952;2023-07-16T00:24:07;18.80;99.90
67974;DHT22;54756;51.140;6.952;2023-07-16T00:26:08;18.80;99.80
67974;DHT22;54756;51.140;6.952;2023-07-16T00:28:08;18.80;99.50
67974;DHT22;54756;51.140;6.952;2023-07-16T00:30:09;18.70;99.50
67974;DHT22;54756;51.140;6.952;2023-07-16T00:32:11;18.70;99.70
67974;DHT22;54756;51.140;6.952;2023-07-16T00:34:12;18.70;99.60
67974;DHT22;54756;51.140;6.952;2023-07-16T00:36:13;18.70;99.10
67974;DHT22;54756;51.140;6.952;2023-07-16T00:38:14;18.70;99.20
67974;DHT22;54756;51.140;6.952;2023-07-16T00:40:15;18.70;99.10
67974;DHT22;54756;51.140;6.952;2023-07-16T00:42:15;18.70;99.00
67974;DHT22;54756;51.140;6.952;2023-07-16T00:44:16;18.60;98.90
67974;DHT22;54756;51.140;6.952;2023-07-16T00:46:16;18.60;99.10
67974;DHT22;54756;51.140;6.952;2023-07-16T00:48:18;18.60;99.00
67974;DHT22;54756;51.140;6.952;2023-07-16T00:50:20;18.60;99.00
67974;DHT22;54756;51.140;6.952;2023-07-16T00:52:21;18.50;99.20
67974;DHT22;54756;51.140;6.952;2023-07-16T00:54:22;18.50;99.10
67974;DHT22;54756;51.140;6.952;2023-07-16T00:56:23;18.50;99.40
67974;DHT22;54756;51.140;6.952;2023-07-16T00:58:24;18.50;99.50
67974;DHT22;54756;51.140;6.952;2023-07-16T01:00:24;18.40;99.50
67974;DHT22;54756;51.140;6.952;2023-07-16T01:02:25;18.40;99.60
67974;DHT22;54756;51.140;6.952;2023-07-16T01:04:26;18.40;99.70
67974;DHT22;54756;51.140;6.952;2023-07-16T01:06:44;18.40;99.80
67974;DHT22;54756;51.140;6.952;2023-07-16T01:08:49;18.30;99.80
67974;DHT22;54756;51.140;6.952;2023-07-16T01:10:52;18.20;99.80
67974;DHT22;54756;51.140;6.952;2023-07-16T01:12:55;18.20;99.80
67974;DHT22;54756;51.140;6.952;2023-07-16T01:14:56;18.20;99.90
67974;DHT22;54756;51.140;6.952;2023-07-16T01:16:57;18.20;99.90
67974;DHT22;54756;51.140;6.952;2023-07-16T01:18:59;18.20;99.90
67974;DHT22;54756;51.140;6.952;2023-07-16T01:20:59;18.10;99.90
67974;DHT22;54756;51.140;6.952;2023-07-16T01:29:48;18.00;99.90
67974;DHT22;54756;51.140;6.952;2023-07-16T01:31:50;17.90;99.90
67974;DHT22;54756;51.140;6.952;2023-07-16T01:33:52;17.90;99.90
67974;DHT22;54756;51.140;6.952;2023-07-16T01:35:55;17.90;99.90
67974;DHT22;54756;51.140;6.952;2023-07-16T01:37:58;17.90;99.90
67974;DHT22;54756;51.140;6.952;2023-07-16T01:39:58;17.80;99.90
67974;DHT22;54756;51.140;6.952;2023-07-16T01:41:59;17.80;99.90
67974;DHT22;54756;51.140;6.952;2023-07-16T01:44:00;17.80;99.90
67974;DHT22;54756;51.140;6.952;2023-07-16T01:46:00;17.70;99.90
67974;DHT22;54756;51.140;6.952;2023-07-16T01:48:27;17.70;99.90
67974;DHT22;54756;51.140;6.952;2023-07-16T01:50:30;17.60;99.90
67974;DHT22;54756;51.140;6.952;2023-07-16T01:52:30;17.60;99.90
67974;DHT22;54756;51.140;6.952;2023-07-16T01:54:31;17.50;99.90
67974;DHT22;54756;51.140;6.952;2023-07-16T01:56:31;17.50;99.90
67974;DHT22;54756;51.140;6.952;2023-07-16T01:58:33;17.50;99.90
67974;DHT22;54756;51.140;6.952;2023-07-16T02:00:34;17.50;99.90
67974;DHT22;54756;51.140;6.952;2023-07-16T02:02:34;17.50;99.90
67974;DHT22;54756;51.140;6.952;2023-07-16T02:04:35;17.50;99.90
67974;DHT22;54756;51.140;6.952;2023-07-16T02:06:35;17.60;99.90
67974;DHT22;54756;51.140;6.952;2023-07-16T02:08:36;17.60;99.90
67974;DHT22;54756;51.140;6.952;2023-07-16T02:10:36;17.60;99.90
67974;DHT22;54756;51.140;6.952;2023-07-16T02:12:37;17.60;99.90
67974;DHT22;54756;51.140;6.952;2023-07-16T02:14:37;17.60;99.90
67974;DHT22;54756;51.140;6.952;2023-07-16T02:16:38;17.60;99.90
67974;DHT22;54756;51.140;6.952;2023-07-16T02:18:39;17.50;99.90
67974;DHT22;54756;51.140;6.952;2023-07-16T02:20:39;17.50;99.90
67974;DHT22;54756;51.140;6.952;2023-07-16T02:22:40;17.50;99.90
67974;DHT22;54756;51.140;6.952;2023-07-16T02:24:40;17.40;99.90
67974;DHT22;54756;51.140;6.952;2023-07-16T02:26:41;17.40;99.90
67974;DHT22;54756;51.140;6.952;2023-07-16T02:28:41;17.30;99.90
67974;DHT22;54756;51.140;6.952;2023-07-16T02:30:43;17.30;99.90
67974;DHT22;54756;51.140;6.952;2023-07-16T02:32:43;17.30;99.90
67974;DHT22;54756;51.140;6.952;2023-07-16T02:34:44;17.30;99.80
67974;DHT22;54756;51.140;6.952;2023-07-16T02:36:44;17.30;99.50
67974;DHT22;54756;51.140;6.952;2023-07-16T02:38:45;17.30;99.30
67974;DHT22;54756;51.140;6.952;2023-07-16T02:40:47;17.30;99.10
67974;DHT22;54756;51.140;6.952;2023-07-16T02:42:48;17.30;98.90
67974;DHT22;54756;51.140;6.952;2023-07-16T02:44:48;17.20;98.70
67974;DHT22;54756;51.140;6.952;2023-07-16T02:46:49;17.20;98.60
67974;DHT22;54756;51.140;6.952;2023-07-16T02:48:49;17.20;98.30
67974;DHT22;54756;51.140;6.952;2023-07-16T02:50:50;17.20;98.10
67974;DHT22;54756;51.140;6.952;2023-07-16T02:52:50;17.20;98.10
67974;DHT22;54756;51.140;6.952;2023-07-16T02:54:51;17.20;97.80
67974;DHT22;54756;51.140;6.952;2023-07-16T02:56:52;17.20;97.60
67974;DHT22;54756;51.140;6.952;2023-07-16T02:58:53;17.10;97.60
67974;DHT22;54756;51.140;6.952;2023-07-16T03:00:53;17.10;97.50
67974;DHT22;54756;51.140;6.952;2023-07-16T03:02:54;17.10;97.30
67974;DHT22;54756;51.140;6.952;2023-07-16T03:04:55;17.10;97.20
67974;DHT22;54756;51.140;6.952;2023-07-16T03:06:56;17.10;97.00
67974;DHT22;54756;51.140;6.952;2023-07-16T03:08:56;17.00;97.00
67974;DHT22;54756;51.140;6.952;2023-07-16T03:10:57;17.00;96.70
67974;DHT22;54756;51.140;6.952;2023-07-16T03:12:58;17.00;96.70
67974;DHT22;54756;51.140;6.952;2023-07-16T03:14:58;17.00;96.40
67974;DHT22;54756;51.140;6.952;2023-07-16T03:16:59;17.00;96.10
67974;DHT22;54756;51.140;6.952;2023-07-16T03:19:00;16.90;95.80
67974;DHT22;54756;51.140;6.952;2023-07-16T03:21:00;17.00;95.60
67974;DHT22;54756;51.140;6.952;2023-07-16T03:23:01;17.00;95.70
67974;DHT22;54756;51.140;6.952;2023-07-16T03:25:01;16.90;95.90
67974;DHT22;54756;51.140;6.952;2023-07-16T03:27:03;16.90;95.90
67974;DHT22;54756;51.140;6.952;2023-07-16T03:29:03;16.90;95.10
67974;DHT22;54756;51.140;6.952;2023-07-16T03:31:04;16.90;95.20
67974;DHT22;54756;51.140;6.952;2023-07-16T03:33:04;16.90;95.10
67974;DHT22;54756;51.140;6.952;2023-07-16T03:35:05;16.80;95.00
67974;DHT22;54756;51.140;6.952;2023-07-16T03:37:06;16.80;95.00
67974;DHT22;54756;51.140;6.952;2023-07-16T03:39:06;16.80;94.90
67974;DHT22;54756;51.140;6.952;2023-07-16T03:41:07;16.80;94.80
67974;DHT22;54756;51.140;6.952;2023-07-16T03:43:08;16.70;94.70
67974;DHT22;54756;51.140;6.952;2023-07-16T03:45:10;16.70;94.70
67974;DHT22;54756;51.140;6.952;2023-07-16T03:47:10;16.70;94.70
67974;DHT22;54756;51.140;6.952;2023-07-16T03:49:11;16.70;94.70
67974;DHT22;54756;51.140;6.952;2023-07-16T03:51:12;16.60;94.40
67974;DHT22;54756;51.140;6.952;2023-07-16T03:53:13;16.60;94.40
67974;DHT22;54756;51.140;6.952;2023-07-16T03:55:13;16.60;94.50
67974;DHT22;54756;51.140;6.952;2023-07-16T03:57:14;16.50;94.80
67974;DHT22;54756;51.140;6.952;2023-07-16T03:59:14;16.50;94.80
67974;DHT22;54756;51.140;6.952;2023-07-16T04:01:15;16.50;94.80
67974;DHT22;54756;51.140;6.952;2023-07-16T04:03:15;16.50;94.80
67974;DHT22;54756;51.140;6.952;2023-07-16T04:05:16;16.50;94.80
67974;DHT22;54756;51.140;6.952;2023-07-16T04:07:17;16.50;94.80
67974;DHT22;54756;51.140;6.952;2023-07-16T04:09:18;16.40;94.70
67974;DHT22;54756;51.140;6.952;2023-07-16T04:11:18;16.40;94.80
67974;DHT22;54756;51.140;6.952;2023-07-16T04:13:19;16.40;95.10
67974;DHT22;54756;51.140;6.952;2023-07-16T04:15:19;16.40;94.90
67974;DHT22;54756;51.140;6.952;2023-07-16T04:17:20;16.40;95.00
67974;DHT22;54756;51.140;6.952;2023-07-16T04:19:21;16.40;95.10
67974;DHT22;54756;51.140;6.952;2023-07-16T04:21:22;16.40;94.90
67974;DHT22;54756;51.140;6.952;2023-07-16T04:23:22;16.40;95.10
67974;DHT22;54756;51.140;6.952;2023-07-16T04:25:23;16.40;95.60
67974;DHT22;54756;51.140;6.952;2023-07-16T04:27:24;16.40;95.40
67974;DHT22;54756;51.140;6.952;2023-07-16T04:29:24;16.40;95.50
67974;DHT22;54756;51.140;6.952;2023-07-16T04:31:25;16.40;95.60
67974;DHT22;54756;51.140;6.952;2023-07-16T04:33:25;16.40;95.70
67974;DHT22;54756;51.140;6.952;2023-07-16T04:35:26;16.40;95.80
67974;DHT22;54756;51.140;6.952;2023-07-16T04:37:26;16.40;95.80
67974;DHT22;54756;51.140;6.952;2023-07-16T04:39:27;16.40;95.70
67974;DHT22;54756;51.140;6.952;2023-07-16T04:41:28;16.50;95.30
67974;DHT22;54756;51.140;6.952;2023-07-16T04:43:28;16.50;95.30
67974;DHT22;54756;51.140;6.952;2023-07-16T04:45:29;16.60;95.20
67974;DHT22;54756;51.140;6.952;2023-07-16T04:47:29;16.60;95.00
67974;DHT22;54756;51.140;6.952;2023-07-16T04:49:33;16.70;94.30
67974;DHT22;54756;51.140;6.952;2023-07-16T04:51:33;16.80;93.70
67974;DHT22;54756;51.140;6.952;2023-07-16T04:53:34;16.90;93.30
67974;DHT22;54756;51.140;6.952;2023-07-16T04:55:36;16.90;92.90
67974;DHT22;54756;51.140;6.952;2023-07-16T04:57:37;17.00;92.50
67974;DHT22;54756;51.140;6.952;2023-07-16T04:59:37;17.00;92.20
67974;DHT22;54756;51.140;6.952;2023-07-16T05:01:38;17.10;90.60
67974;DHT22;54756;51.140;6.952;2023-07-16T05:03:38;17.20;90.50
67974;DHT22;54756;51.140;6.952;2023-07-16T05:05:39;17.30;89.90
67974;DHT22;54756;51.140;6.952;2023-07-16T05:07:39;17.30;88.50
67974;DHT22;54756;51.140;6.952;2023-07-16T05:09:40;17.40;87.00
67974;DHT22;54756;51.140;6.952;2023-07-16T05:11:40;17.50;84.80
67974;DHT22;54756;51.140;6.952;2023-07-16T05:13:41;17.60;83.50
67974;DHT22;54756;51.140;6.952;2023-07-16T05:15:43;17.60;84.10
67974;DHT22;54756;51.140;6.952;2023-07-16T05:17:44;17.70;82.50
67974;DHT22;54756;51.140;6.952;2023-07-16T05:19:45;17.70;82.40
67974;DHT22;54756;51.140;6.952;2023-07-16T05:21:45;17.80;80.80
67974;DHT22;54756;51.140;6.952;2023-07-16T05:23:46;17.90;80.00
67974;DHT22;54756;51.140;6.952;2023-07-16T05:25:47;17.90;80.40
67974;DHT22;54756;51.140;6.952;2023-07-16T05:27:48;18.00;79.30
67974;DHT22;54756;51.140;6.952;2023-07-16T05:29:49;18.00;79.10
67974;DHT22;54756;51.140;6.952;2023-07-16T05:31:49;18.00;79.70
67974;DHT22;54756;51.140;6.952;2023-07-16T05:33:50;18.10;79.10
67974;DHT22;54756;51.140;6.952;2023-07-16T05:35:50;18.10;78.80
67974;DHT22;54756;51.140;6.952;2023-07-16T05:37:51;18.20;76.60
67974;DHT22;54756;51.140;6.952;2023-07-16T05:39:51;18.20;75.70
67974;DHT22;54756;51.140;6.952;2023-07-16T05:41:52;18.20;74.60
67974;DHT22;54756;51.140;6.952;2023-07-16T05:43:52;18.30;73.80
67974;DHT22;54756;51.140;6.952;2023-07-16T05:45:53;18.30;74.90
67974;DHT22;54756;51.140;6.952;2023-07-16T05:47:53;18.30;70.70
67974;DHT22;54756;51.140;6.952;2023-07-16T05:49:54;18.40;72.30
67974;DHT22;54756;51.140;6.952;2023-07-16T05:51:54;18.40;70.70
67974;DHT22;54756;51.140;6.952;2023-07-16T05:53:56;18.50;70.60
67974;DHT22;54756;51.140;6.952;2023-07-16T05:55:57;18.50;68.50
67974;DHT22;54756;51.140;6.952;2023-07-16T05:57:57;18.60;68.70
67974;DHT22;54756;51.140;6.952;2023-07-16T05:59:58;18.60;67.50
67974;DHT22;54756;51.140;6.952;2023-07-16T06:01:58;18.60;64.40
67974;DHT22;54756;51.140;6.952;2023-07-16T06:03:59;18.70;60.40
67974;DHT22;54756;51.140;6.952;2023-07-16T06:06:00;18.70;63.30
67974;DHT22;54756;51.140;6.952;2023-07-16T06:08:01;18.70;63.10
67974;DHT22;54756;51.140;6.952;2023-07-16T06:10:01;18.70;62.80
67974;DHT22;54756;51.140;6.952;2023-07-16T06:12:02;18.80;62.90
67974;DHT22;54756;51.140;6.952;2023-07-16T06:14:03;18.90;63.00
67974;DHT22;54756;51.140;6.952;2023-07-16T06:16:04;18.90;63.00
67974;DHT22;54756;51.140;6.952;2023-07-16T06:18:04;18.90;61.80
67974;DHT22;54756;51.140;6.952;2023-07-16T06:20:05;18.90;59.70
67974;DHT22;54756;51.140;6.952;2023-07-16T06:22:07;19.00;59.10
67974;DHT22;54756;51.140;6.952;2023-07-16T06:24:09;19.00;58.00
67974;DHT22;54756;51.140;6.952;2023-07-16T06:26:09;19.10;58.60
67974;DHT22;54756;51.140;6.952;2023-07-16T06:28:10;19.20;54.10
67974;DHT22;54756;51.140;6.952;2023-07-16T06:30:11;19.20;54.40
67974;DHT22;54756;51.140;6.952;2023-07-16T06:32:12;19.20;54.50
67974;DHT22;54756;51.140;6.952;2023-07-16T06:34:12;19.40;55.30
67974;DHT22;54756;51.140;6.952;2023-07-16T06:36:13;19.70;53.50
67974;DHT22;54756;51.140;6.952;2023-07-16T06:38:15;20.00;48.70
67974;DHT22;54756;51.140;6.952;2023-07-16T06:40:15;20.20;48.80
67974;DHT22;54756;51.140;6.952;2023-07-16T06:42:16;20.40;45.00
67974;DHT22;54756;51.140;6.952;2023-07-16T06:44:16;20.40;40.40
67974;DHT22;54756;51.140;6.952;2023-07-16T06:46:17;20.50;38.70
67974;DHT22;54756;51.140;6.952;2023-07-16T06:48:18;20.50;28.90
67974;DHT22;54756;51.140;6.952;2023-07-16T06:50:18;20.30;27.00
67974;DHT22;54756;51.140;6.952;2023-07-16T06:52:22;20.10;29.50
67974;DHT22;54756;51.140;6.952;2023-07-16T06:54:24;20.00;31.70
67974;DHT22;54756;51.140;6.952;2023-07-16T06:56:25;19.80;32.40
67974;DHT22;54756;51.140;6.952;2023-07-16T06:58:32;19.80;33.80
67974;DHT22;54756;51.140;6.952;2023-07-16T07:00:36;19.70;38.30
67974;DHT22;54756;51.140;6.952;2023-07-16T07:02:37;19.70;38.00
67974;DHT22;54756;51.140;6.952;2023-07-16T07:04:38;19.80;33.50
67974;DHT22;54756;51.140;6.952;2023-07-16T07:06:38;19.80;31.20
67974;DHT22;54756;51.140;6.952;2023-07-16T07:08:39;19.80;33.50
67974;DHT22;54756;51.140;6.952;2023-07-16T07:10:39;19.80;35.20
67974;DHT22;54756;51.140;6.952;2023-07-16T07:12:41;19.80;27.00
67974;DHT22;54756;51.140;6.952;2023-07-16T07:14:41;19.80;28.30
67974;DHT22;54756;51.140;6.952;2023-07-16T07:16:42;19.80;27.00
67974;DHT22;54756;51.140;6.952;2023-07-16T07:18:43;19.80;27.00
67974;DHT22;54756;51.140;6.952;2023-07-16T07:20:43;19.80;27.20
67974;DHT22;54756;51.140;6.952;2023-07-16T07:22:44;19.90;23.40
67974;DHT22;54756;51.140;6.952;2023-07-16T07:24:44;19.90;22.30
67974;DHT22;54756;51.140;6.952;2023-07-16T07:26:45;19.90;22.80
67974;DHT22;54756;51.140;6.952;2023-07-16T07:28:45;19.90;24.70
67974;DHT22;54756;51.140;6.952;2023-07-16T07:30:46;20.00;21.20
67974;DHT22;54756;51.140;6.952;2023-07-16T07:32:47;20.00;21.80
67974;DHT22;54756;51.140;6.952;2023-07-16T07:34:48;20.00;22.20
67974;DHT22;54756;51.140;6.952;2023-07-16T07:36:48;20.00;22.90
67974;DHT22;54756;51.140;6.952;2023-07-16T07:38:49;20.10;25.40
67974;DHT22;54756;51.140;6.952;2023-07-16T07:40:49;20.10;23.40
67974;DHT22;54756;51.140;6.952;2023-07-16T07:42:50;20.10;21.40
67974;DHT22;54756;51.140;6.952;2023-07-16T07:44:50;20.30;22.60
67974;DHT22;54756;51.140;6.952;2023-07-16T07:46:51;20.30;17.50
67974;DHT22;54756;51.140;6.952;2023-07-16T07:48:52;20.30;22.30
67974;DHT22;54756;51.140;6.952;2023-07-16T07:50:52;20.40;16.40
67974;DHT22;54756;51.140;6.952;2023-07-16T07:52:53;20.50;15.10
67974;DHT22;54756;51.140;6.952;2023-07-16T07:54:53;20.50;19.40
67974;DHT22;54756;51.140;6.952;2023-07-16T07:56:54;20.60;18.00
67974;DHT22;54756;51.140;6.952;2023-07-16T07:58:54;20.60;13.00
67974;DHT22;54756;51.140;6.952;2023-07-16T08:00:55;20.60;15.00
67974;DHT22;54756;51.140;6.952;2023-07-16T08:02:55;20.60;11.00
67974;DHT22;54756;51.140;6.952;2023-07-16T08:04:56;20.60;12.00
67974;DHT22;54756;51.140;6.952;2023-07-16T08:06:56;20.60;11.20
67974;DHT22;54756;51.140;6.952;2023-07-16T08:08:57;20.70;11.00
67974;DHT22;54756;51.140;6.952;2023-07-16T08:10:58;20.70;11.50
67974;DHT22;54756;51.140;6.952;2023-07-16T08:12:58;20.80;9.20
67974;DHT22;54756;51.140;6.952;2023-07-16T08:14:59;20.90;8.90
67974;DHT22;54756;51.140;6.952;2023-07-16T08:16:59;21.00;6.10
67974;DHT22;54756;51.140;6.952;2023-07-16T08:19:00;21.10;10.20
67974;DHT22;54756;51.140;6.952;2023-07-16T08:21:00;21.10;6.00
67974;DHT22;54756;51.140;6.952;2023-07-16T08:23:01;21.10;5.50
67974;DHT22;54756;51.140;6.952;2023-07-16T08:25:02;21.10;7.40
67974;DHT22;54756;51.140;6.952;2023-07-16T08:27:03;21.20;6.70
67974;DHT22;54756;51.140;6.952;2023-07-16T08:29:04;21.30;2.60
67974;DHT22;54756;51.140;6.952;2023-07-16T08:31:05;21.30;2.70
67974;DHT22;54756;51.140;6.952;2023-07-16T08:33:05;21.40;2.60
67974;DHT22;54756;51.140;6.952;2023-07-16T08:35:07;21.50;4.20
67974;DHT22;54756;51.140;6.952;2023-07-16T08:37:07;21.50;3.30
67974;DHT22;54756;51.140;6.952;2023-07-16T08:39:08;21.50;4.90
67974;DHT22;54756;51.140;6.952;2023-07-16T08:41:09;21.70;7.70
67974;DHT22;54756;51.140;6.952;2023-07-16T08:43:09;21.70;1.00
67974;DHT22;54756;51.140;6.952;2023-07-16T08:45:12;21.80;1.00
67974;DHT22;54756;51.140;6.952;2023-07-16T08:47:15;21.80;1.00
67974;DHT22;54756;51.140;6.952;2023-07-16T08:49:17;21.90;1.00
67974;DHT22;54756;51.140;6.952;2023-07-16T08:51:21;21.90;1.00
67974;DHT22;54756;51.140;6.952;2023-07-16T08:53:22;21.90;1.00
67974;DHT22;54756;51.140;6.952;2023-07-16T08:55:23;21.90;1.00
67974;DHT22;54756;51.140;6.952;2023-07-16T08:57:23;22.00;1.00
67974;DHT22;54756;51.140;6.952;2023-07-16T08:59:25;22.00;1.00
67974;DHT22;54756;51.140;6.952;2023-07-16T09:01:26;22.20;1.00
67974;DHT22;54756;51.140;6.952;2023-07-16T09:03:27;22.20;1.00
67974;DHT22;54756;51.140;6.952;2023-07-16T09:05:29;22.30;1.00
67974;DHT22;54756;51.140;6.952;2023-07-16T09:07:30;22.30;1.00
67974;DHT22;54756;51.140;6.952;2023-07-16T09:09:30;22.40;1.00
67974;DHT22;54756;51.140;6.952;2023-07-16T09:11:31;22.40;1.00
67974;DHT22;54756;51.140;6.952;2023-07-16T09:13:33;22.40;1.00
67974;DHT22;54756;51.140;6.952;2023-07-16T09:15:33;22.40;1.00
67974;DHT22;54756;51.140;6.952;2023-07-16T09:17:34;22.50;1.00
67974;DHT22;54756;51.140;6.952;2023-07-16T09:19:36;22.60;1.00
67974;DHT22;54756;51.140;6.952;2023-07-16T09:21:37;22.70;1.00
67974;DHT22;54756;51.140;6.952;2023-07-16T09:23:38;22.80;1.00
67974;DHT22;54756;51.140;6.952;2023-07-16T09:25:38;22.80;1.00
67974;DHT22;54756;51.140;6.952;2023-07-16T09:27:41;22.70;1.00
67974;DHT22;54756;51.140;6.952;2023-07-16T09:29:41;22.80;1.00
67974;DHT22;54756;51.140;6.952;2023-07-16T09:32:00;22.80;1.00
67974;DHT22;54756;51.140;6.952;2023-07-16T09:34:05;22.70;1.00
67974;DHT22;54756;51.140;6.952;2023-07-16T09:36:09;22.70;1.00
67974;DHT22;54756;51.140;6.952;2023-07-16T09:38:10;22.80;1.00
67974;DHT22;54756;51.140;6.952;2023-07-16T09:40:11;22.90;1.00
67974;DHT22;54756;51.140;6.952;2023-07-16T09:42:13;22.90;1.00
67974;DHT22;54756;51.140;6.952;2023-07-16T09:44:15;23.00;1.00
67974;DHT22;54756;51.140;6.952;2023-07-16T09:46:15;23.10;1.00
67974;DHT22;54756;51.140;6.952;2023-07-16T09:48:16;23.30;1.00
67974;DHT22;54756;51.140;6.952;2023-07-16T09:50:16;23.60;1.00
67974;DHT22;54756;51.140;6.952;2023-07-16T09:52:18;23.80;1.00
67974;DHT22;54756;51.140;6.952;2023-07-16T09:54:20;24.10;1.00
67974;DHT22;54756;51.140;6.952;2023-07-16T09:56:21;24.20;1.00
67974;DHT22;54756;51.140;6.952;2023-07-16T09:58:23;24.40;1.00
67974;DHT22;54756;51.140;6.952;2023-07-16T10:00:25;24.40;1.00
67974;DHT22;54756;51.140;6.952;2023-07-16T10:02:26;24.40;1.00
67974;DHT22;54756;51.140;6.952;2023-07-16T10:04:37;24.20;1.00
67974;DHT22;54756;51.140;6.952;2023-07-16T10:06:55;24.00;1.00
67974;DHT22;54756;51.140;6.952;2023-07-16T10:08:56;23.90;1.00
67974;DHT22;54756;51.140;6.952;2023-07-16T10:10:57;24.00;1.00
67974;DHT22;54756;51.140;6.952;2023-07-16T10:13:01;24.10;1.00
67974;DHT22;54756;51.140;6.952;2023-07-16T10:15:03;24.20;1.00
67974;DHT22;54756;51.140;6.952;2023-07-16T10:17:05;24.50;1.00
67974;DHT22;54756;51.140;6.952;2023-07-16T10:19:06;24.70;1.00
67974;DHT22;54756;51.140;6.952;2023-07-16T10:21:07;24.70;1.00
67974;DHT22;54756;51.140;6.952;2023-07-16T10:23:13;24.80;1.00
67974;DHT22;54756;51.140;6.952;2023-07-16T10:27:26;25.00;1.00
67974;DHT22;54756;51.140;6.952;2023-07-16T10:29:27;25.20;1.00
67974;DHT22;54756;51.140;6.952;2023-07-16T10:31:27;25.30;1.00
67974;DHT22;54756;51.140;6.952;2023-07-16T10:33:28;25.40;1.00
67974;DHT22;54756;51.140;6.952;2023-07-16T10:35:29;25.60;1.00
67974;DHT22;54756;51.140;6.952;2023-07-16T10:37:30;25.50;1.00
67974;DHT22;54756;51.140;6.952;2023-07-16T10:39:30;25.40;1.00
67974;DHT22;54756;51.140;6.952;2023-07-16T10:41:31;25.30;1.00
67974;DHT22;54756;51.140;6.952;2023-07-16T10:43:33;25.10;1.00
67974;DHT22;54756;51.140;6.952;2023-07-16T10:45:34;25.20;1.00
67974;DHT22;54756;51.140;6.952;2023-07-16T10:47:36;25.30;1.00
67974;DHT22;54756;51.140;6.952;2023-07-16T10:49:39;25.50;1.00
67974;DHT22;54756;51.140;6.952;2023-07-16T10:51:40;25.60;1.00
67974;DHT22;54756;51.140;6.952;2023-07-16T10:53:43;25.90;1.00
67974;DHT22;54756;51.140;6.952;2023-07-16T10:55:44;26.10;1.00
67974;DHT22;54756;51.140;6.952;2023-07-16T10:57:46;26.30;1.00
67974;DHT22;54756;51.140;6.952;2023-07-16T10:59:48;26.30;1.00
67974;DHT22;54756;51.140;6.952;2023-07-16T11:01:50;26.10;1.00
67974;DHT22;54756;51.140;6.952;2023-07-16T11:03:50;25.70;1.00
67974;DHT22;54756;51.140;6.952;2023-07-16T11:05:51;25.40;1.00
67974;DHT22;54756;51.140;6.952;2023-07-16T11:07:51;25.20;1.00
67974;DHT22;54756;51.140;6.952;2023-07-16T11:09:54;25.00;1.00
67974;DHT22;54756;51.140;6.952;2023-07-16T11:11:54;25.00;1.00
67974;DHT22;54756;51.140;6.952;2023-07-16T11:13:56;25.00;1.00
67974;DHT22;54756;51.140;6.952;2023-07-16T11:16:06;25.00;1.00
67974;DHT22;54756;51.140;6.952;2023-07-16T11:18:07;25.00;1.00
67974;DHT22;54756;51.140;6.952;2023-07-16T11:20:08;25.00;1.00
67974;DHT22;54756;51.140;6.952;2023-07-16T11:22:10;25.00;1.00
67974;DHT22;54756;51.140;6.952;2023-07-16T11:24:13;24.90;1.00
67974;DHT22;54756;51.140;6.952;2023-07-16T11:26:15;24.80;1.00
67974;DHT22;54756;51.140;6.952;2023-07-16T11:28:15;24.80;1.00
67974;DHT22;54756;51.140;6.952;2023-07-16T11:30:22;24.90;1.00
67974;DHT22;54756;51.140;6.952;2023-07-16T11:34:31;25.00;1.00
67974;DHT22;54756;51.140;6.952;2023-07-16T11:36:31;25.00;1.00
67974;DHT22;54756;51.140;6.952;2023-07-16T11:38:36;25.00;1.00
67974;DHT22;54756;51.140;6.952;2023-07-16T11:40:37;25.10;1.00
67974;DHT22;54756;51.140;6.952;2023-07-16T11:42:40;24.90;1.00
67974;DHT22;54756;51.140;6.952;2023-07-16T11:44:42;24.60;1.00
67974;DHT22;54756;51.140;6.952;2023-07-16T11:46:46;24.20;1.00
67974;DHT22;54756;51.140;6.952;2023-07-16T11:48:47;24.10;1.00
67974;DHT22;54756;51.140;6.952;2023-07-16T11:50:47;24.20;1.00
67974;DHT22;54756;51.140;6.952;2023-07-16T11:52:56;24.40;1.00
67974;DHT22;54756;51.140;6.952;2023-07-16T11:54:58;24.60;1.00
67974;DHT22;54756;51.140;6.952;2023-07-16T11:57:01;24.60;1.00
67974;DHT22;54756;51.140;6.952;2023-07-16T11:59:02;24.60;1.00
67974;DHT22;54756;51.140;6.952;2023-07-16T12:01:03;24.50;1.00
67974;DHT22;54756;51.140;6.952;2023-07-16T12:03:03;24.20;1.00
67974;DHT22;54756;51.140;6.952;2023-07-16T12:05:04;24.10;1.00
67974;DHT22;54756;51.140;6.952;2023-07-16T12:07:05;24.00;1.00
67974;DHT22;54756;51.140;6.952;2023-07-16T12:09:05;23.90;1.00
67974;DHT22;54756;51.140;6.952;2023-07-16T12:11:06;23.80;1.00
67974;DHT22;54756;51.140;6.952;2023-07-16T12:13:07;23.90;1.00
67974;DHT22;54756;51.140;6.952;2023-07-16T12:15:08;23.80;1.00
67974;DHT22;54756;51.140;6.952;2023-07-16T12:17:09;23.80;1.00
67974;DHT22;54756;51.140;6.952;2023-07-16T12:19:10;23.70;1.00
67974;DHT22;54756;51.140;6.952;2023-07-16T12:21:11;23.80;1.00
67974;DHT22;54756;51.140;6.952;2023-07-16T12:23:11;24.00;1.00
67974;DHT22;54756;51.140;6.952;2023-07-16T12:25:12;24.00;1.00
67974;DHT22;54756;51.140;6.952;2023-07-16T12:27:14;23.80;1.00
67974;DHT22;54756;51.140;6.952;2023-07-16T12:29:14;23.70;1.00
67974;DHT22;54756;51.140;6.952;2023-07-16T12:31:15;23.60;1.00
67974;DHT22;54756;51.140;6.952;2023-07-16T12:33:17;23.60;1.00
67974;DHT22;54756;51.140;6.952;2023-07-16T12:35:17;23.70;1.00
67974;DHT22;54756;51.140;6.952;2023-07-16T12:37:18;23.70;1.00
67974;DHT22;54756;51.140;6.952;2023-07-16T12:39:18;23.80;1.00
67974;DHT22;54756;51.140;6.952;2023-07-16T12:41:19;23.80;1.00
67974;DHT22;54756;51.140;6.952;2023-07-16T12:43:19;24.00;1.00
67974;DHT22;54756;51.140;6.952;2023-07-16T12:45:20;24.20;1.00
67974;DHT22;54756;51.140;6.952;2023-07-16T12:47:21;24.40;1.00
67974;DHT22;54756;51.140;6.952;2023-07-16T12:49:21;24.30;1.00
67974;DHT22;54756;51.140;6.952;2023-07-16T12:51:22;24.20;1.00
67974;DHT22;54756;51.140;6.952;2023-07-16T12:53:23;24.20;1.00
67974;DHT22;54756;51.140;6.952;2023-07-16T12:55:23;24.30;1.00
67974;DHT22;54756;51.140;6.952;2023-07-16T12:57:24;24.60;1.00
67974;DHT22;54756;51.140;6.952;2023-07-16T12:59:25;25.10;1.00
67974;DHT22;54756;51.140;6.952;2023-07-16T13:01:25;25.80;1.00
67974;DHT22;54756;51.140;6.952;2023-07-16T13:03:26;26.20;1.00